Time;durP1;ratioP1;P1;durP2;ratioP2;P2;SDS_P1;SDS_P2;PMS_P1;PMS_P2;Temp;Humidity;BMP_temperature;BMP_pressure;BME280_temperature;BME280_humidity;BME280_pressure;Samples;Min_cycle;Max_cycle;Signal;HPM_P1;HPM_P2
2022/03/16 00:01:18;;;;;;;15.75;8.45;;;9.90;49.00;;;;;;5031837;28;20596;-70
2022/03/16 00:03:44;;;;;;;14.50;8.35;;;9.90;50.10;;;;;;5042674;28;20068;-69
2022/03/16 00:06:10;;;;;;;9.57;6.55;;;9.90;52.30;;;;;;5042716;28;20067;-69
2022/03/16 00:08:35;;;;;;;10.63;5.53;;;9.70;54.80;;;;;;5045774;28;20512;-69
2022/03/16 00:11:01;;;;;;;7.57;5.85;;;9.70;55.10;;;;;;5044461;28;20136;-67
2022/03/16 00:13:27;;;;;;;11.15;6.93;;;9.60;55.60;;;;;;5044227;28;20040;-67
2022/03/16 00:15:53;;;;;;;10.93;7.50;;;9.60;57.80;;;;;;5042935;28;20526;-67
2022/03/16 00:18:21;;;;;;;8.40;6.55;;;9.50;57.90;;;;;;5044797;28;20048;-67
2022/03/16 00:20:48;;;;;;;11.90;6.90;;;9.50;56.40;;;;;;5047683;28;20041;-67
2022/03/16 00:23:14;;;;;;;11.70;6.47;;;9.50;56.80;;;;;;5038251;28;20087;-67
2022/03/16 00:25:40;;;;;;;10.20;7.13;;;9.40;55.00;;;;;;5042269;28;20032;-67
2022/03/16 00:28:06;;;;;;;11.88;7.15;;;9.40;54.50;;;;;;5040528;28;20043;-67
2022/03/16 00:30:32;;;;;;;10.60;7.60;;;9.50;55.20;;;;;;5040709;28;20040;-67
2022/03/16 00:32:57;;;;;;;11.55;6.68;;;9.60;56.10;;;;;;5044303;28;20032;-68
2022/03/16 00:35:23;;;;;;;8.95;6.47;;;9.60;55.40;;;;;;5039581;28;20394;-67
2022/03/16 00:37:49;;;;;;;9.82;6.57;;;9.60;55.20;;;;;;5041530;28;20068;-67
2022/03/16 00:40:14;;;;;;;8.70;6.10;;;9.80;53.60;;;;;;5027158;28;20604;-67
2022/03/16 00:42:40;;;;;;;9.85;7.00;;;10.00;51.60;;;;;;5022006;28;20556;-68
2022/03/16 00:45:06;;;;;;;9.75;7.28;;;10.00;52.60;;;;;;5022888;28;20517;-68
2022/03/16 00:47:32;;;;;;;10.05;6.25;;;10.00;53.20;;;;;;5010102;28;20060;-67
2022/03/16 00:49:58;;;;;;;9.52;5.93;;;9.90;55.30;;;;;;5027389;28;20482;-67
2022/03/16 00:52:23;;;;;;;9.02;6.55;;;9.80;56.90;;;;;;5029235;28;20064;-67
2022/03/16 00:54:49;;;;;;;9.95;6.32;;;9.70;56.40;;;;;;5027657;28;20617;-66
2022/03/16 00:57:14;;;;;;;9.65;5.90;;;9.70;56.50;;;;;;5027594;28;20037;-66
2022/03/16 00:59:40;;;;;;;10.73;6.28;;;9.60;57.20;;;;;;5026609;28;20053;-69
2022/03/16 01:02:06;;;;;;;10.27;6.47;;;9.60;57.20;;;;;;5026187;28;20088;-66
2022/03/16 01:04:31;;;;;;;10.05;6.35;;;9.60;57.50;;;;;;5028054;28;20103;-66
2022/03/16 01:06:57;;;;;;;8.40;5.90;;;9.60;58.00;;;;;;5026668;28;20052;-70
2022/03/16 01:09:23;;;;;;;11.10;5.85;;;9.70;57.50;;;;;;5025382;28;20734;-70
2022/03/16 01:11:49;;;;;;;10.25;7.03;;;9.80;55.90;;;;;;5029414;28;20434;-70
2022/03/16 01:14:15;;;;;;;9.80;6.65;;;9.80;56.80;;;;;;5029527;28;20041;-70
2022/03/16 01:16:41;;;;;;;12.25;7.05;;;9.80;57.70;;;;;;5030895;28;20043;-70
2022/03/16 01:19:07;;;;;;;11.52;7.15;;;9.70;59.30;;;;;;5025602;28;20547;-73
2022/03/16 01:21:34;;;;;;;9.38;7.20;;;9.60;60.80;;;;;;5023566;28;20493;-63
2022/03/16 01:23:59;;;;;;;11.63;7.35;;;9.60;60.80;;;;;;5028433;28;20075;-72
2022/03/16 01:26:25;;;;;;;9.23;6.70;;;9.70;59.50;;;;;;5026109;28;20046;-72
2022/03/16 01:28:51;;;;;;;10.43;6.45;;;9.70;58.70;;;;;;5029395;28;20045;-72
2022/03/16 01:31:21;;;;;;;9.52;6.50;;;9.70;58.30;;;;;;5031428;28;20088;-72
2022/03/16 01:33:46;;;;;;;11.20;7.13;;;9.80;57.50;;;;;;5027611;28;20033;-72
2022/03/16 01:36:12;;;;;;;7.45;5.72;;;9.60;58.30;;;;;;5030059;28;20041;-71
2022/03/16 01:38:38;;;;;;;11.70;6.40;;;9.50;59.80;;;;;;5031708;28;20037;-72
2022/03/16 01:41:03;;;;;;;9.30;6.45;;;9.40;61.90;;;;;;5050884;28;20036;-72
2022/03/16 01:43:29;;;;;;;8.50;6.57;;;9.40;63.10;;;;;;5050683;28;20044;-72
2022/03/16 01:45:55;;;;;;;12.35;6.28;;;9.40;63.80;;;;;;5049668;28;20052;-72
2022/03/16 01:48:21;;;;;;;10.27;6.22;;;9.50;64.80;;;;;;5044393;28;20045;-72
2022/03/16 01:50:47;;;;;;;11.57;6.68;;;9.50;65.60;;;;;;5051891;28;20041;-72
2022/03/16 01:53:14;;;;;;;11.10;6.93;;;9.50;65.80;;;;;;5042248;28;20052;-72
2022/03/16 01:55:40;;;;;;;8.88;6.78;;;9.50;66.60;;;;;;5047473;28;20059;-72
2022/03/16 01:58:07;;;;;;;9.40;6.13;;;9.60;63.80;;;;;;5044145;28;20051;-72
2022/03/16 02:00:33;;;;;;;8.93;7.00;;;9.70;61.50;;;;;;5048114;28;20049;-72
2022/03/16 02:02:58;;;;;;;10.52;6.35;;;9.70;62.40;;;;;;5048337;28;20096;-72
2022/03/16 02:05:24;;;;;;;14.82;6.85;;;9.80;61.90;;;;;;5044191;28;20432;-67
2022/03/16 02:07:50;;;;;;;10.88;7.43;;;9.80;62.40;;;;;;5048059;28;20721;-67
2022/03/16 02:10:17;;;;;;;12.38;7.35;;;9.60;65.30;;;;;;5050628;28;20674;-67
2022/03/16 02:12:49;;;;;;;9.60;6.97;;;9.50;67.90;;;;;;5050604;28;20048;-67
2022/03/16 02:15:15;;;;;;;8.27;6.22;;;9.30;71.10;;;;;;5043789;28;20060;-67
2022/03/16 02:17:41;;;;;;;7.55;6.38;;;9.10;72.00;;;;;;5051333;28;20529;-67
2022/03/16 02:20:08;;;;;;;10.75;6.57;;;8.90;71.00;;;;;;5047432;28;20067;-67
2022/03/16 02:22:36;;;;;;;12.60;6.93;;;8.70;72.00;;;;;;5053442;28;20060;-67
2022/03/16 02:25:04;;;;;;;11.93;6.65;;;8.60;70.40;;;;;;5047487;28;20045;-67
2022/03/16 02:27:30;;;;;;;11.10;6.90;;;8.60;70.00;;;;;;5049402;28;20028;-67
2022/03/16 02:29:55;;;;;;;11.27;6.38;;;8.60;72.90;;;;;;5045241;28;20066;-67
2022/03/16 02:32:21;;;;;;;8.68;7.10;;;8.50;75.10;;;;;;5049374;28;20052;-67
2022/03/16 02:34:47;;;;;;;7.63;6.80;;;8.40;76.10;;;;;;5048589;28;20032;-67
2022/03/16 02:37:12;;;;;;;8.93;6.57;;;8.40;78.70;;;;;;5048803;28;20126;-67
2022/03/16 02:39:38;;;;;;;9.05;6.47;;;8.40;79.30;;;;;;5051707;28;20122;-67
2022/03/16 02:42:05;;;;;;;10.10;7.10;;;8.50;81.40;;;;;;5053356;28;20079;-67
2022/03/16 02:44:30;;;;;;;9.38;6.45;;;8.50;82.70;;;;;;5052903;28;20048;-67
2022/03/16 02:46:56;;;;;;;11.13;6.95;;;8.40;85.50;;;;;;5050006;28;20383;-65
2022/03/16 02:49:22;;;;;;;9.60;7.07;;;8.40;86.70;;;;;;5044766;28;20041;-66
2022/03/16 02:51:48;;;;;;;11.50;7.00;;;8.40;88.00;;;;;;5050367;28;20052;-66
2022/03/16 02:54:13;;;;;;;11.40;6.65;;;8.30;87.90;;;;;;5044796;28;21345;-66
2022/03/16 02:56:39;;;;;;;12.77;7.13;;;8.30;89.80;;;;;;5045922;28;20459;-67
2022/03/16 02:59:05;;;;;;;10.93;7.63;;;8.30;89.70;;;;;;5048618;28;20056;-67
2022/03/16 03:01:31;;;;;;;8.13;7.20;;;8.20;90.20;;;;;;5044200;28;20036;-65
2022/03/16 03:03:57;;;;;;;8.95;6.80;;;8.20;90.70;;;;;;5049088;28;20408;-65
2022/03/16 03:06:22;;;;;;;9.60;7.32;;;8.30;89.90;;;;;;5040808;28;20109;-65
2022/03/16 03:08:48;;;;;;;9.77;7.50;;;8.40;89.00;;;;;;5045501;28;20033;-65
2022/03/16 03:11:14;;;;;;;8.68;6.97;;;8.40;90.40;;;;;;5041580;28;20315;-65
2022/03/16 03:13:40;;;;;;;9.30;7.00;;;8.20;91.60;;;;;;5045807;28;20036;-67
2022/03/16 03:16:06;;;;;;;12.98;7.07;;;8.00;92.30;;;;;;5041594;28;20039;-67
2022/03/16 03:18:33;;;;;;;10.10;7.13;;;7.80;93.60;;;;;;5043060;28;20076;-68
2022/03/16 03:20:59;;;;;;;8.15;6.45;;;7.60;94.70;;;;;;5046378;28;20032;-67
2022/03/16 03:23:25;;;;;;;9.48;7.10;;;7.50;95.30;;;;;;5041660;28;20090;-67
2022/03/16 03:25:50;;;;;;;9.63;7.10;;;7.50;96.40;;;;;;5045821;28;20033;-67
2022/03/16 03:28:16;;;;;;;10.73;6.80;;;7.50;96.50;;;;;;5027407;28;20055;-67
2022/03/16 03:30:42;;;;;;;11.98;7.65;;;7.50;97.00;;;;;;5046776;28;22590;-67
2022/03/16 03:33:07;;;;;;;11.10;7.18;;;7.60;96.90;;;;;;5047315;28;20037;-67
2022/03/16 03:35:33;;;;;;;8.43;7.45;;;7.70;97.00;;;;;;5045500;28;20041;-68
2022/03/16 03:37:59;;;;;;;9.27;7.72;;;7.70;96.90;;;;;;5047493;28;20036;-67
2022/03/16 03:40:24;;;;;;;10.95;7.63;;;7.70;97.40;;;;;;5042516;28;20069;-67
2022/03/16 03:42:51;;;;;;;8.43;7.13;;;7.70;97.50;;;;;;5044525;28;20397;-67
2022/03/16 03:45:17;;;;;;;12.68;8.70;;;7.80;97.40;;;;;;5049925;28;20041;-67
2022/03/16 03:47:43;;;;;;;12.02;8.45;;;7.90;96.90;;;;;;5043678;28;20044;-67
2022/03/16 03:50:09;;;;;;;12.10;8.55;;;8.00;96.90;;;;;;5045961;28;20049;-67
2022/03/16 03:52:34;;;;;;;10.15;8.23;;;8.00;97.40;;;;;;5046930;28;20037;-67
2022/03/16 03:55:00;;;;;;;10.68;8.40;;;8.00;97.30;;;;;;5043262;28;20401;-67
2022/03/16 03:57:26;;;;;;;17.13;12.23;;;8.00;97.40;;;;;;5046734;28;20617;-69
2022/03/16 03:59:51;;;;;;;14.32;9.32;;;8.00;97.60;;;;;;5046225;28;20057;-67
2022/03/16 04:02:17;;;;;;;10.80;8.32;;;7.90;96.50;;;;;;5044077;28;20623;-68
2022/03/16 04:04:43;;;;;;;14.27;9.15;;;7.90;97.10;;;;;;5041095;28;20110;-68
2022/03/16 04:07:08;;;;;;;13.13;9.65;;;7.90;96.90;;;;;;5041710;28;20124;-68
2022/03/16 04:09:34;;;;;;;13.05;9.43;;;8.00;96.30;;;;;;5041710;28;20091;-68
2022/03/16 04:12:00;;;;;;;12.40;8.50;;;8.00;96.20;;;;;;5046893;28;20166;-68
2022/03/16 04:14:25;;;;;;;11.57;8.60;;;8.10;95.90;;;;;;5024698;28;20124;-68
2022/03/16 04:16:51;;;;;;;13.98;8.88;;;8.10;95.90;;;;;;5043062;28;20642;-67
2022/03/16 04:19:17;;;;;;;13.38;10.57;;;8.10;96.20;;;;;;5039308;28;20103;-67
2022/03/16 04:21:42;;;;;;;16.30;10.15;;;8.10;95.30;;;;;;5041648;28;20080;-67
2022/03/16 04:24:08;;;;;;;14.77;10.55;;;8.10;94.60;;;;;;5046725;28;20053;-68
2022/03/16 04:26:34;;;;;;;12.00;9.50;;;8.10;94.70;;;;;;5046748;28;20049;-67
2022/03/16 04:28:59;;;;;;;13.93;9.20;;;8.00;95.30;;;;;;5049100;28;20586;-67
2022/03/16 04:31:25;;;;;;;13.18;11.00;;;8.00;95.70;;;;;;5048348;28;20590;-67
2022/03/16 04:33:52;;;;;;;11.63;10.00;;;8.00;95.50;;;;;;5051983;28;20413;-68
2022/03/16 04:36:18;;;;;;;12.68;8.57;;;7.80;95.40;;;;;;5051741;28;20049;-72
2022/03/16 04:38:43;;;;;;;9.57;8.45;;;7.80;95.10;;;;;;5046429;28;20113;-72
2022/03/16 04:41:09;;;;;;;11.75;8.50;;;7.80;95.40;;;;;;5029475;28;20045;-70
2022/03/16 04:43:34;;;;;;;13.98;9.38;;;7.70;94.80;;;;;;5025872;28;20052;-71
2022/03/16 04:46:01;;;;;;;19.98;10.05;;;7.70;94.20;;;;;;5028002;28;20046;-68
2022/03/16 04:48:26;;;;;;;15.25;9.68;;;7.60;94.90;;;;;;5030017;28;20402;-68
2022/03/16 04:50:52;;;;;;;11.68;8.57;;;7.50;95.30;;;;;;5012155;28;20042;-66
2022/03/16 04:53:18;;;;;;;11.50;9.55;;;7.40;96.40;;;;;;5031844;28;20448;-70
2022/03/16 04:55:43;;;;;;;15.00;9.80;;;7.30;96.40;;;;;;5032983;28;20040;-68
2022/03/16 04:58:09;;;;;;;12.18;9.35;;;7.20;96.60;;;;;;5028334;28;20037;-68
2022/03/16 05:00:37;;;;;;;13.52;9.85;;;7.20;96.80;;;;;;5035122;28;20704;-67
2022/03/16 05:03:03;;;;;;;13.30;9.32;;;7.20;97.20;;;;;;5028328;28;20119;-67
2022/03/16 05:05:30;;;;;;;13.10;9.55;;;7.00;97.60;;;;;;5031843;28;20100;-67
2022/03/16 05:07:56;;;;;;;16.65;10.27;;;6.90;98.00;;;;;;5030547;28;20033;-67
2022/03/16 05:10:22;;;;;;;16.63;9.35;;;7.00;98.60;;;;;;5027397;28;20060;-67
2022/03/16 05:12:48;;;;;;;14.13;10.30;;;6.90;99.00;;;;;;5027158;28;20041;-67
2022/03/16 05:15:18;;;;;;;19.20;9.98;;;7.00;99.10;;;;;;5027019;28;20119;-67
2022/03/16 05:17:45;;;;;;;15.07;9.93;;;7.00;98.90;;;;;;5032336;28;20028;-67
2022/03/16 05:20:12;;;;;;;12.95;10.32;;;7.00;98.90;;;;;;5024872;28;20045;-67
2022/03/16 05:22:44;;;;;;;13.48;9.98;;;6.90;99.10;;;;;;5029151;28;20044;-67
2022/03/16 05:25:12;;;;;;;14.05;9.82;;;7.00;99.30;;;;;;5027159;28;20152;-67
2022/03/16 05:27:38;;;;;;;14.25;9.55;;;7.00;99.60;;;;;;5026869;28;20036;-68
2022/03/16 05:30:05;;;;;;;14.50;10.00;;;7.10;99.50;;;;;;5034246;28;20057;-67
2022/03/16 05:32:32;;;;;;;12.70;9.80;;;7.00;99.20;;;;;;5034798;28;20049;-67
2022/03/16 05:34:57;;;;;;;16.25;10.13;;;7.10;99.70;;;;;;5023675;28;20493;-70
2022/03/16 05:37:24;;;;;;;14.55;10.60;;;7.10;99.90;;;;;;5035793;28;20056;-70
2022/03/16 05:39:49;;;;;;;12.20;9.90;;;7.10;99.90;;;;;;5030451;28;20053;-70
2022/03/16 05:42:15;;;;;;;11.95;10.50;;;7.10;99.70;;;;;;5031540;28;20037;-70
2022/03/16 05:44:41;;;;;;;11.95;9.88;;;7.10;99.90;;;;;;5031389;28;20061;-71
2022/03/16 05:47:06;;;;;;;13.27;10.10;;;7.10;99.90;;;;;;5027823;28;20037;-69
2022/03/16 05:49:32;;;;;;;15.15;10.57;;;7.10;99.80;;;;;;5030127;28;20068;-69
2022/03/16 05:51:58;;;;;;;19.50;10.63;;;7.10;99.90;;;;;;5031074;28;20021;-69
2022/03/16 05:54:23;;;;;;;14.30;10.60;;;7.10;99.90;;;;;;5023600;28;20591;-69
2022/03/16 05:56:49;;;;;;;12.95;9.93;;;7.10;99.90;;;;;;5026369;28;20041;-69
2022/03/16 05:59:15;;;;;;;12.55;10.07;;;7.10;99.90;;;;;;5029543;28;20060;-69
2022/03/16 06:01:40;;;;;;;14.35;10.52;;;7.20;99.90;;;;;;5010810;28;20033;-69
2022/03/16 06:04:06;;;;;;;14.05;10.68;;;7.30;99.90;;;;;;5028978;28;20065;-69
2022/03/16 06:06:31;;;;;;;13.00;10.50;;;7.30;99.60;;;;;;5029024;28;20132;-69
2022/03/16 06:08:58;;;;;;;16.23;10.55;;;7.30;99.50;;;;;;5026352;28;20053;-70
2022/03/16 06:11:24;;;;;;;16.33;12.25;;;7.20;99.90;;;;;;5023931;28;20499;-66
2022/03/16 06:13:50;;;;;;;15.15;11.57;;;7.10;99.90;;;;;;5028080;28;20053;-66
2022/03/16 06:16:16;;;;;;;18.52;10.93;;;7.00;99.90;;;;;;5026611;28;20040;-66
2022/03/16 06:18:41;;;;;;;17.48;12.55;;;7.00;99.90;;;;;;5027720;28;20034;-66
2022/03/16 06:21:07;;;;;;;18.17;11.85;;;7.10;99.90;;;;;;5029325;28;20057;-67
2022/03/16 06:23:34;;;;;;;16.42;11.65;;;7.10;99.90;;;;;;5029344;28;20044;-67
2022/03/16 06:26:01;;;;;;;15.32;11.35;;;7.10;99.90;;;;;;5026226;28;20072;-66
2022/03/16 06:28:27;;;;;;;14.65;11.40;;;7.10;99.90;;;;;;5024857;28;20052;-67
2022/03/16 06:30:52;;;;;;;14.65;11.73;;;7.00;99.90;;;;;;5029069;28;20041;-68
2022/03/16 06:33:18;;;;;;;17.92;12.38;;;7.00;99.90;;;;;;5024612;28;20128;-68
2022/03/16 06:35:43;;;;;;;16.80;12.38;;;7.00;99.90;;;;;;5026816;28;20091;-68
2022/03/16 06:38:11;;;;;;;15.73;12.40;;;7.00;99.90;;;;;;5025453;28;20044;-71
2022/03/16 06:40:37;;;;;;;17.25;12.80;;;7.10;99.90;;;;;;5051727;28;20052;-68
2022/03/16 06:43:02;;;;;;;19.83;13.45;;;7.00;99.90;;;;;;5046206;28;20032;-68
2022/03/16 06:45:29;;;;;;;18.98;12.27;;;7.00;99.90;;;;;;5046760;28;20041;-69
2022/03/16 06:47:56;;;;;;;16.75;11.85;;;7.10;99.90;;;;;;5049685;28;20037;-69
2022/03/16 06:50:22;;;;;;;19.92;13.20;;;7.00;99.90;;;;;;5058359;28;20033;-69
2022/03/16 06:52:48;;;;;;;16.00;13.10;;;7.10;99.90;;;;;;5046632;28;20094;-68
2022/03/16 06:55:14;;;;;;;16.80;12.73;;;7.00;99.90;;;;;;5049389;28;20465;-68
2022/03/16 06:57:40;;;;;;;19.25;14.40;;;7.00;99.90;;;;;;5048721;28;20037;-68
2022/03/16 07:00:08;;;;;;;18.10;12.90;;;7.10;99.90;;;;;;5032203;28;20041;-68
2022/03/16 07:03:00;;;;;;;30.85;20.70;;;7.00;99.90;;;;;;5045558;28;20020;-68
2022/03/16 07:05:28;;;;;;;36.75;26.80;;;6.90;99.90;;;;;;5041423;28;20151;-69
2022/03/16 07:07:59;;;;;;;22.52;18.30;;;6.90;99.90;;;;;;5047828;28;20025;-68
2022/03/16 07:10:26;;;;;;;22.73;17.83;;;6.90;99.90;;;;;;5050817;28;20024;-69
2022/03/16 07:12:51;;;;;;;15.30;13.38;;;7.00;99.90;;;;;;5044169;28;20297;-67
2022/03/16 07:15:18;;;;;;;18.85;16.38;;;7.00;99.90;;;;;;5052546;28;20033;-68
2022/03/16 07:17:43;;;;;;;19.67;13.20;;;7.00;99.90;;;;;;5040835;28;20106;-68
2022/03/16 07:20:10;;;;;;;15.35;12.82;;;7.00;99.90;;;;;;5046590;28;20048;-69
2022/03/16 07:22:36;;;;;;;15.88;12.48;;;7.00;99.90;;;;;;5047963;28;20075;-69
2022/03/16 07:25:09;;;;;;;15.05;12.55;;;7.00;99.90;;;;;;5041615;28;20049;-68
2022/03/16 07:27:37;;;;;;;17.63;12.57;;;7.00;99.90;;;;;;5048289;28;20059;-69
2022/03/16 07:30:07;;;;;;;19.40;13.05;;;7.00;99.90;;;;;;5046423;28;20048;-68
2022/03/16 07:32:37;;;;;;;15.13;12.40;;;6.90;99.90;;;;;;5051764;28;20040;-69
2022/03/16 07:35:03;;;;;;;16.92;13.57;;;6.80;99.90;;;;;;5045862;28;20135;-69
2022/03/16 07:37:29;;;;;;;17.88;13.52;;;6.80;99.90;;;;;;5046780;28;20033;-69
2022/03/16 07:39:55;;;;;;;15.32;13.73;;;6.90;99.90;;;;;;5042625;28;20535;-69
2022/03/16 07:42:20;;;;;;;19.40;13.23;;;6.90;99.90;;;;;;5046068;28;20045;-69
2022/03/16 07:44:47;;;;;;;19.42;13.90;;;6.90;99.90;;;;;;5052540;28;20039;-68
2022/03/16 07:47:12;;;;;;;16.13;13.38;;;7.00;99.90;;;;;;5041797;28;20036;-68
2022/03/16 07:49:38;;;;;;;16.88;14.73;;;6.90;99.90;;;;;;5046419;28;20464;-68
2022/03/16 07:52:04;;;;;;;17.40;14.18;;;6.90;99.90;;;;;;5038515;28;20850;-68
2022/03/16 07:54:30;;;;;;;15.02;13.07;;;6.80;99.90;;;;;;5043591;28;20040;-68
2022/03/16 07:56:56;;;;;;;16.48;13.18;;;6.80;99.90;;;;;;5048059;28;20054;-68
2022/03/16 07:59:22;;;;;;;16.48;13.90;;;6.80;99.90;;;;;;5046641;28;20049;-68
2022/03/16 08:01:47;;;;;;;15.80;13.30;;;6.80;99.90;;;;;;5049017;28;20061;-68
2022/03/16 08:04:15;;;;;;;36.97;24.63;;;6.80;99.90;;;;;;5054188;28;20482;-68
2022/03/16 08:06:41;;;;;;;20.88;16.15;;;6.70;99.90;;;;;;5047312;28;20041;-68
2022/03/16 08:09:06;;;;;;;18.63;15.20;;;6.70;99.90;;;;;;5046494;28;20059;-68
2022/03/16 08:11:32;;;;;;;19.52;14.82;;;6.60;99.90;;;;;;5050342;28;20025;-67
2022/03/16 08:13:58;;;;;;;16.25;14.48;;;6.60;99.90;;;;;;5046063;28;20071;-68
2022/03/16 08:16:24;;;;;;;18.25;15.18;;;6.70;99.90;;;;;;5043503;28;20045;-68
2022/03/16 08:18:49;;;;;;;17.55;15.13;;;6.70;99.90;;;;;;5051773;28;20040;-68
2022/03/16 08:21:15;;;;;;;19.67;15.40;;;6.70;99.90;;;;;;5049446;28;20053;-68
2022/03/16 08:23:41;;;;;;;17.92;15.90;;;6.70;99.90;;;;;;5055570;28;20051;-68
2022/03/16 08:26:06;;;;;;;18.05;14.32;;;6.70;99.90;;;;;;5052031;28;20542;-68
2022/03/16 08:28:32;;;;;;;17.98;13.88;;;6.60;99.90;;;;;;5036189;28;20186;-67
2022/03/16 08:30:59;;;;;;;16.52;12.15;;;6.60;99.90;;;;;;5052502;28;20124;-68
2022/03/16 08:33:24;;;;;;;15.50;12.32;;;6.40;99.90;;;;;;5043540;28;20108;-68
2022/03/16 08:35:51;;;;;;;14.45;12.88;;;6.30;99.90;;;;;;5049000;28;20601;-68
2022/03/16 08:38:17;;;;;;;15.18;13.57;;;6.20;99.90;;;;;;5045272;28;20037;-68
2022/03/16 08:40:43;;;;;;;15.13;13.48;;;6.30;99.90;;;;;;5059094;28;20093;-68
2022/03/16 09:01:16;;;;;;;17.05;14.85;;;6.20;99.90;;;;;;1470935;26;20093;-69
2022/03/16 09:03:42;;;;;;;18.40;14.43;;;6.30;99.90;;;;;;5068920;28;20535;-70
2022/03/16 09:06:08;;;;;;;17.30;14.73;;;6.20;99.90;;;;;;5071077;28;20040;-69
2022/03/16 09:08:34;;;;;;;17.80;15.43;;;6.30;99.90;;;;;;5068680;28;20405;-70
2022/03/16 09:11:00;;;;;;;17.60;15.63;;;6.30;99.90;;;;;;5075373;28;20044;-70
2022/03/16 09:13:26;;;;;;;19.08;15.55;;;6.40;99.90;;;;;;5076920;28;20830;-70
2022/03/16 09:15:52;;;;;;;20.40;16.67;;;6.40;99.90;;;;;;5074492;28;20036;-68
2022/03/16 09:18:20;;;;;;;17.80;15.32;;;6.50;99.90;;;;;;5078479;28;20055;-68
2022/03/16 09:20:46;;;;;;;19.40;15.90;;;6.50;99.90;;;;;;5078647;28;20094;-70
2022/03/16 09:23:12;;;;;;;20.13;16.13;;;6.40;99.90;;;;;;5078452;28;20859;-70
2022/03/16 09:25:41;;;;;;;17.48;15.48;;;6.50;99.90;;;;;;5074210;28;20139;-70
2022/03/16 09:28:08;;;;;;;17.65;14.52;;;6.40;99.90;;;;;;5075074;28;20024;-70
2022/03/16 09:30:35;;;;;;;20.15;14.77;;;6.50;99.90;;;;;;5075127;28;20047;-70
2022/03/16 09:33:00;;;;;;;17.15;14.88;;;6.50;99.90;;;;;;5075701;28;20032;-69
2022/03/16 09:35:27;;;;;;;17.15;15.35;;;6.60;99.90;;;;;;5074989;28;20387;-69
2022/03/16 09:37:54;;;;;;;20.63;15.15;;;6.60;99.90;;;;;;5075484;28;20139;-69
2022/03/16 09:40:20;;;;;;;18.67;14.40;;;6.60;99.90;;;;;;5071638;28;20153;-69
2022/03/16 09:42:48;;;;;;;16.45;14.27;;;6.50;99.90;;;;;;5070557;28;20083;-69
2022/03/16 09:45:26;;;;;;;14.57;12.80;;;6.60;99.90;;;;;;5074038;28;20058;-69
2022/03/16 09:47:52;;;;;;;13.93;12.45;;;6.70;99.90;;;;;;5070836;28;20017;-69
2022/03/16 09:50:19;;;;;;;17.27;13.40;;;6.60;99.90;;;;;;5070803;28;20090;-69
2022/03/16 09:52:46;;;;;;;13.95;12.43;;;6.50;99.90;;;;;;5056257;28;20028;-69
2022/03/16 09:55:13;;;;;;;14.15;12.65;;;6.40;99.90;;;;;;5074016;28;20094;-69
2022/03/16 09:57:39;;;;;;;14.43;12.80;;;6.40;99.90;;;;;;5078900;28;20051;-69
2022/03/16 10:00:06;;;;;;;13.10;11.70;;;6.50;99.90;;;;;;5076279;28;20424;-69
2022/03/16 10:02:31;;;;;;;13.90;12.05;;;6.60;99.90;;;;;;5078789;28;20162;-69
2022/03/16 10:04:57;;;;;;;14.07;12.00;;;6.70;99.90;;;;;;5075477;28;20506;-69
2022/03/16 10:07:30;;;;;;;13.90;12.38;;;6.70;99.90;;;;;;5073336;28;20029;-69
2022/03/16 10:15:24;;;;;;;15.77;13.00;;;6.90;99.90;;;;;;5072378;28;20108;-69
2022/03/16 10:18:00;;;;;;;14.80;11.93;;;6.90;99.90;;;;;;5068045;28;20086;-69
2022/03/16 10:20:28;;;;;;;12.68;11.32;;;7.00;99.90;;;;;;5070617;28;20508;-68
2022/03/16 10:23:00;;;;;;;12.80;11.18;;;7.00;99.90;;;;;;5069371;28;20165;-68
2022/03/16 10:25:38;;;;;;;13.15;11.20;;;7.00;99.90;;;;;;5070350;28;20025;-68
2022/03/16 10:28:13;;;;;;;15.25;11.75;;;6.90;99.90;;;;;;5069446;28;20182;-68
2022/03/16 10:30:58;;;;;;;15.63;12.32;;;7.00;99.90;;;;;;5074459;28;20419;-68
2022/03/16 10:33:29;;;;;;;12.30;11.00;;;7.10;99.90;;;;;;5076322;28;20032;-68
2022/03/16 10:36:08;;;;;;;14.40;11.63;;;7.10;99.90;;;;;;5072023;28;20086;-69
2022/03/16 10:38:38;;;;;;;14.40;12.65;;;7.10;99.90;;;;;;5070556;28;20717;-69
2022/03/16 10:46:46;;;;;;;12.93;11.55;;;7.30;99.90;;;;;;5071691;28;20151;-69
2022/03/16 10:49:16;;;;;;;12.18;10.98;;;7.20;99.90;;;;;;5076204;28;20054;-69
2022/03/16 10:51:45;;;;;;;12.40;11.10;;;7.30;99.90;;;;;;5069921;28;20035;-69
2022/03/16 10:54:15;;;;;;;12.88;11.60;;;7.30;99.90;;;;;;5071093;28;20036;-69
2022/03/16 10:56:42;;;;;;;11.55;10.40;;;7.40;99.90;;;;;;5068658;28;20044;-69
2022/03/16 10:59:08;;;;;;;12.23;10.93;;;7.40;99.90;;;;;;5069663;28;20040;-69
2022/03/16 11:01:38;;;;;;;11.43;10.23;;;7.50;99.90;;;;;;5066818;28;20052;-69
2022/03/16 11:04:04;;;;;;;12.35;10.70;;;7.50;99.90;;;;;;5070347;28;20070;-69
2022/03/16 11:06:31;;;;;;;11.77;10.57;;;7.50;99.90;;;;;;5075449;28;20040;-69
2022/03/16 11:08:59;;;;;;;12.68;11.35;;;7.50;99.90;;;;;;5070162;28;20512;-69
2022/03/16 11:14:11;;;;;;;12.50;11.13;;;7.60;99.90;;;;;;5069107;28;20281;-69
2022/03/16 11:16:37;;;;;;;12.85;11.38;;;7.70;99.90;;;;;;5062082;28;20039;-69
2022/03/16 11:19:05;;;;;;;13.02;11.60;;;7.60;99.90;;;;;;5074675;28;20045;-69
2022/03/16 11:21:49;;;;;;;13.88;12.38;;;7.60;99.90;;;;;;5078130;28;20047;-69
2022/03/16 11:24:19;;;;;;;16.30;13.02;;;7.60;99.90;;;;;;5059837;28;20043;-69
2022/03/16 11:27:16;;;;;;;15.07;12.65;;;7.60;99.90;;;;;;5069914;28;20028;-69
2022/03/16 11:30:09;;;;;;;14.68;12.93;;;7.60;99.90;;;;;;5075114;28;20425;-69
2022/03/16 11:32:41;;;;;;;13.93;11.98;;;7.70;99.90;;;;;;5077788;28;20031;-69
2022/03/16 11:35:09;;;;;;;15.48;12.93;;;7.70;99.90;;;;;;5074390;28;20622;-70
2022/03/16 11:37:49;;;;;;;16.25;13.20;;;7.70;99.90;;;;;;5069604;28;20146;-68
2022/03/16 11:40:17;;;;;;;16.20;14.00;;;7.80;99.90;;;;;;5070724;28;20055;-68
2022/03/16 11:43:08;;;;;;;14.05;12.55;;;7.90;99.90;;;;;;5062973;28;20036;-69
2022/03/16 11:46:00;;;;;;;13.43;12.02;;;7.90;99.90;;;;;;5068035;28;20041;-70
2022/03/16 11:48:28;;;;;;;;;;;7.80;99.90;;;;;;5069616;28;20032;-70
2022/03/16 11:51:09;;;;;;;13.57;11.38;;;7.70;99.90;;;;;;5070679;28;20130;-70
2022/03/16 11:56:40;;;;;;;25.67;16.25;;;7.60;99.90;;;;;;5077516;28;20090;-70
2022/03/16 11:59:31;;;;;;;14.25;12.40;;;7.70;99.90;;;;;;5073683;28;20051;-69
2022/03/16 12:02:18;;;;;;;14.05;11.70;;;7.90;99.90;;;;;;5061863;28;20040;-70
2022/03/16 12:04:48;;;;;;;15.65;11.27;;;8.10;99.90;;;;;;5075079;28;20093;-69
2022/03/16 12:07:21;;;;;;;10.32;9.27;;;8.10;99.90;;;;;;5078637;28;20036;-69
2022/03/16 12:10:01;;;;;;;12.65;10.05;;;8.10;99.90;;;;;;5075056;28;20032;-69
2022/03/16 12:12:51;;;;;;;10.48;9.35;;;8.00;99.90;;;;;;5076812;28;20043;-69
2022/03/16 12:15:39;;;;;;;10.95;8.85;;;8.00;99.90;;;;;;5072220;28;20092;-70
2022/03/16 12:18:05;;;;;;;10.05;8.43;;;8.00;99.90;;;;;;5073495;28;20044;-70
2022/03/16 12:20:56;;;;;;;9.02;7.88;;;8.20;99.90;;;;;;5076501;28;20059;-70
2022/03/16 12:23:45;;;;;;;10.95;9.05;;;8.20;99.90;;;;;;5072667;28;20032;-70
2022/03/16 12:26:12;;;;;;;9.23;8.30;;;8.20;99.90;;;;;;5078321;28;20032;-70
2022/03/16 12:28:56;;;;;;;9.18;8.18;;;8.20;99.90;;;;;;5071585;28;20087;-70
2022/03/16 12:31:21;;;;;;;8.25;7.45;;;8.10;99.90;;;;;;5074714;28;20521;-72
2022/03/16 12:33:55;;;;;;;11.15;7.68;;;8.20;99.70;;;;;;5056860;28;20068;-70
2022/03/16 12:36:32;;;;;;;8.63;7.18;;;8.10;99.90;;;;;;5070369;28;20044;-70
2022/03/16 12:39:01;;;;;;;6.35;5.78;;;8.10;99.90;;;;;;5075678;28;20032;-70
2022/03/16 12:44:15;;;;;;;6.35;5.75;;;8.20;99.50;;;;;;5076331;28;20507;-69
2022/03/16 12:47:05;;;;;;;6.35;5.80;;;8.20;99.40;;;;;;5074417;28;20032;-70
2022/03/16 12:49:32;;;;;;;5.60;5.10;;;8.10;99.80;;;;;;5069834;28;20115;-70
2022/03/16 12:52:01;;;;;;;6.70;5.40;;;8.20;99.90;;;;;;5071825;28;20156;-70
2022/03/16 12:54:29;;;;;;;8.00;6.07;;;8.30;99.60;;;;;;5076486;28;20029;-70
2022/03/16 12:57:02;;;;;;;7.30;5.38;;;8.20;99.20;;;;;;5079773;28;20074;-70
2022/03/16 12:59:38;;;;;;;6.60;5.95;;;8.20;98.60;;;;;;5075455;28;20068;-70
2022/03/16 13:02:12;;;;;;;6.75;4.88;;;8.10;98.60;;;;;;5078472;28;20102;-70
2022/03/16 13:04:40;;;;;;;7.40;5.80;;;8.10;98.50;;;;;;5075101;28;20047;-70
2022/03/16 13:07:07;;;;;;;6.22;5.22;;;8.00;99.10;;;;;;5079323;28;20028;-71
2022/03/16 13:09:34;;;;;;;6.38;5.50;;;8.00;99.00;;;;;;5072616;28;20169;-70
2022/03/16 13:12:11;;;;;;;7.75;6.47;;;7.90;99.30;;;;;;5072686;28;20032;-70
2022/03/16 13:14:47;;;;;;;5.95;5.28;;;8.10;99.30;;;;;;5072247;28;20185;-69
2022/03/16 13:17:13;;;;;;;6.20;5.70;;;8.10;99.20;;;;;;5075482;28;20024;-69
2022/03/16 13:19:44;;;;;;;5.55;5.03;;;8.10;99.10;;;;;;5079652;28;20040;-69
2022/03/16 13:22:14;;;;;;;6.13;5.10;;;8.10;98.90;;;;;;5073884;28;20032;-69
2022/03/16 13:24:51;;;;;;;7.28;5.72;;;8.20;98.60;;;;;;5074604;28;20123;-69
2022/03/16 13:27:20;;;;;;;5.95;5.43;;;8.20;98.60;;;;;;5077587;28;20533;-69